Time;durP1;ratioP1;P1;durP2;ratioP2;P2;SDS_P1;SDS_P2;PMS_P1;PMS_P2;Temp;Humidity;BMP_temperature;BMP_pressure;BME280_temperature;BME280_humidity;BME280_pressure;Samples;Min_cycle;Max_cycle;Signal;HPM_P1;HPM_P2
2023/11/24 00:01:22;;;;;;;9.80;2.73;;;9.90;99.90;;;;;;5093541;28;20480;-83
2023/11/24 00:03:49;;;;;;;9.80;2.40;;;9.90;99.90;;;;;;5096256;28;20525;-83
2023/11/24 00:06:15;;;;;;;9.57;3.10;;;9.90;99.90;;;;;;5096282;28;20512;-83
2023/11/24 00:08:42;;;;;;;14.60;3.00;;;9.90;99.90;;;;;;5092871;28;20498;-83
2023/11/24 00:11:11;;;;;;;12.00;2.43;;;9.80;99.90;;;;;;5098055;28;20895;-83
2023/11/24 00:13:37;;;;;;;11.03;2.27;;;9.60;99.90;;;;;;5093303;28;20470;-82
2023/11/24 00:16:08;;;;;;;11.20;2.43;;;9.60;99.90;;;;;;5096604;28;20557;-83
2023/11/24 00:18:35;;;;;;;7.30;2.43;;;9.40;99.90;;;;;;5096824;28;20441;-82
2023/11/24 00:21:06;;;;;;;11.53;2.10;;;9.30;99.90;;;;;;5098497;28;20454;-83
2023/11/24 00:23:33;;;;;;;7.30;2.30;;;9.20;99.90;;;;;;5094880;28;20454;-82
2023/11/24 00:26:00;;;;;;;7.60;2.20;;;9.10;99.90;;;;;;5101215;28;20452;-82
2023/11/24 00:28:28;;;;;;;9.50;2.00;;;9.10;99.90;;;;;;5099195;28;20444;-81
2023/11/24 00:30:57;;;;;;;9.10;2.07;;;8.90;99.90;;;;;;5100216;28;20832;-83
2023/11/24 00:33:24;;;;;;;8.63;4.20;;;8.80;99.90;;;;;;5104586;28;20461;-82
2023/11/24 00:35:51;;;;;;;10.53;1.50;;;8.80;99.90;;;;;;5100465;28;20507;-82
2023/11/24 00:38:17;;;;;;;7.63;1.67;;;8.80;99.90;;;;;;5100698;28;20461;-82
2023/11/24 00:40:44;;;;;;;5.90;1.83;;;8.70;99.90;;;;;;5097340;28;20507;-82
2023/11/24 00:43:11;;;;;;;5.67;1.70;;;8.60;99.90;;;;;;5100079;28;20450;-83
2023/11/24 00:45:39;;;;;;;12.50;1.40;;;8.50;99.90;;;;;;5101781;28;20445;-81
2023/11/24 00:48:06;;;;;;;7.93;1.80;;;8.50;99.90;;;;;;5097495;28;20549;-82
2023/11/24 00:50:34;;;;;;;7.57;1.33;;;8.50;99.90;;;;;;5099519;28;20484;-81
2023/11/24 00:53:02;;;;;;;7.80;1.40;;;8.50;99.90;;;;;;5101147;28;20491;-81
2023/11/24 00:55:30;;;;;;;8.57;2.80;;;8.60;99.90;;;;;;5096169;28;20459;-81
2023/11/24 00:57:57;;;;;;;4.80;1.87;;;8.60;99.90;;;;;;5100322;28;20479;-83
2023/11/24 01:00:24;;;;;;;4.33;1.33;;;8.50;99.90;;;;;;5095838;28;20456;-82
2023/11/24 01:02:52;;;;;;;10.17;2.43;;;8.50;99.90;;;;;;5095299;28;20451;-81
2023/11/24 01:05:20;;;;;;;9.40;1.87;;;8.50;99.90;;;;;;5095151;28;20483;-82
2023/11/24 01:07:47;;;;;;;10.77;1.87;;;8.50;99.90;;;;;;5098572;28;21040;-80
2023/11/24 01:10:14;;;;;;;5.60;1.90;;;8.40;99.90;;;;;;5098650;28;20523;-80
2023/11/24 01:12:41;;;;;;;7.17;2.23;;;8.40;99.90;;;;;;5095428;28;20468;-81
2023/11/24 01:15:09;;;;;;;6.57;1.93;;;8.40;99.90;;;;;;5098365;28;20485;-81
2023/11/24 01:17:36;;;;;;;6.00;1.60;;;8.40;99.90;;;;;;5098952;28;20923;-81
2023/11/24 01:20:09;;;;;;;8.10;2.80;;;8.40;99.90;;;;;;5094059;28;20455;-80
2023/11/24 01:22:36;;;;;;;3.10;1.40;;;8.40;99.90;;;;;;5104332;28;20456;-81
2023/11/24 01:25:03;;;;;;;5.67;1.83;;;8.40;99.90;;;;;;5094332;28;20467;-79
2023/11/24 01:27:30;;;;;;;7.20;2.63;;;8.40;99.90;;;;;;5100396;28;20476;-80
2023/11/24 01:29:57;;;;;;;6.33;1.33;;;8.40;99.90;;;;;;5100647;28;21352;-80
2023/11/24 01:32:24;;;;;;;7.03;1.67;;;8.40;99.90;;;;;;5100486;28;20484;-80
2023/11/24 01:34:51;;;;;;;8.50;2.30;;;8.30;99.90;;;;;;5100050;28;20824;-79
2023/11/24 01:37:21;;;;;;;11.73;2.83;;;8.30;99.90;;;;;;5100814;28;20482;-79
2023/11/24 01:39:49;;;;;;;7.37;1.87;;;8.20;99.90;;;;;;5100121;28;20949;-80
2023/11/24 01:42:16;;;;;;;4.07;1.60;;;8.10;99.90;;;;;;5099610;28;20456;-80
2023/11/24 01:44:43;;;;;;;6.47;2.00;;;8.10;99.90;;;;;;5099361;28;20537;-79
2023/11/24 01:47:10;;;;;;;8.37;1.70;;;7.90;99.90;;;;;;5099805;28;20484;-80
2023/11/24 01:49:37;;;;;;;10.23;1.90;;;7.90;99.90;;;;;;5099182;28;21077;-79
2023/11/24 01:52:05;;;;;;;5.73;1.40;;;8.00;99.90;;;;;;5100005;28;20514;-79
2023/11/24 01:54:36;;;;;;;2.30;1.23;;;7.90;99.90;;;;;;5100519;28;20475;-79
2023/11/24 01:57:05;;;;;;;3.97;1.20;;;8.00;99.90;;;;;;5101485;28;21408;-79
2023/11/24 01:59:32;;;;;;;10.10;1.73;;;8.00;99.90;;;;;;5101059;28;21010;-79
2023/11/24 02:02:00;;;;;;;4.37;1.17;;;7.90;99.90;;;;;;5100049;28;20447;-80
2023/11/24 02:04:27;;;;;;;6.03;1.30;;;7.90;99.90;;;;;;5099561;28;20465;-79
2023/11/24 02:06:54;;;;;;;5.10;1.93;;;7.90;99.90;;;;;;5101810;28;20553;-80
2023/11/24 02:09:22;;;;;;;6.53;1.60;;;7.80;99.90;;;;;;5099630;28;20912;-80
2023/11/24 02:11:50;;;;;;;3.20;1.43;;;7.80;99.90;;;;;;5099320;28;20460;-80
2023/11/24 02:14:17;;;;;;;5.60;2.17;;;7.70;99.90;;;;;;5099289;28;20459;-80
2023/11/24 02:16:44;;;;;;;4.07;1.30;;;7.70;99.90;;;;;;5098897;28;20476;-79
2023/11/24 02:19:12;;;;;;;5.50;1.53;;;7.60;99.90;;;;;;5098693;28;20455;-80
2023/11/24 02:21:39;;;;;;;9.67;2.27;;;7.60;99.90;;;;;;5099911;28;20465;-80
2023/11/24 02:24:08;;;;;;;5.17;1.53;;;7.50;99.90;;;;;;5099714;28;20965;-80
2023/11/24 02:26:35;;;;;;;6.73;1.37;;;7.50;99.90;;;;;;5098964;28;20471;-80
2023/11/24 02:29:02;;;;;;;5.00;1.17;;;7.50;99.90;;;;;;5098267;28;20459;-79
2023/11/24 02:31:32;;;;;;;3.60;1.30;;;7.40;99.90;;;;;;5098450;28;20458;-79
2023/11/24 02:33:59;;;;;;;5.03;1.10;;;7.40;99.90;;;;;;5099902;28;20531;-79
2023/11/24 02:36:27;;;;;;;6.63;1.17;;;7.40;99.90;;;;;;5099195;28;20490;-80
2023/11/24 02:38:54;;;;;;;3.17;1.30;;;7.40;99.90;;;;;;5099048;28;20482;-80
2023/11/24 02:41:22;;;;;;;8.03;1.10;;;7.40;99.90;;;;;;5098333;28;20456;-80
2023/11/24 02:43:49;;;;;;;5.93;1.23;;;7.30;99.90;;;;;;5096934;28;20987;-80
2023/11/24 02:46:18;;;;;;;6.77;1.63;;;7.30;99.90;;;;;;5093253;28;20466;-80
2023/11/24 02:48:45;;;;;;;5.87;1.43;;;7.20;99.90;;;;;;5099526;28;20554;-80
2023/11/24 02:51:13;;;;;;;6.60;1.50;;;7.20;99.90;;;;;;5095109;28;20570;-80
2023/11/24 02:53:41;;;;;;;5.70;1.40;;;7.20;99.90;;;;;;5101140;28;20831;-80
2023/11/24 02:56:08;;;;;;;6.97;1.50;;;7.30;99.90;;;;;;5099486;28;20476;-80
2023/11/24 02:58:37;;;;;;;6.17;1.53;;;7.40;99.90;;;;;;5097968;28;20994;-80
2023/11/24 03:01:05;;;;;;;4.17;2.17;;;7.50;99.90;;;;;;5098870;28;20949;-79
2023/11/24 03:03:32;;;;;;;7.40;1.50;;;7.40;99.90;;;;;;5101017;28;20452;-79
2023/11/24 03:06:02;;;;;;;4.67;1.47;;;7.50;99.90;;;;;;5099890;28;21005;-80
2023/11/24 03:08:29;;;;;;;3.90;1.20;;;7.50;99.90;;;;;;5099679;28;20554;-79
2023/11/24 03:10:55;;;;;;;3.47;1.50;;;7.50;99.90;;;;;;5101531;28;20493;-79
2023/11/24 03:13:23;;;;;;;4.53;1.30;;;7.40;99.90;;;;;;5101377;28;20447;-78
2023/11/24 03:15:52;;;;;;;5.30;1.50;;;7.30;99.90;;;;;;5102868;28;20493;-79
2023/11/24 03:18:19;;;;;;;6.53;1.37;;;7.30;99.90;;;;;;5102853;28;20451;-78
2023/11/24 03:20:46;;;;;;;3.73;1.17;;;7.20;99.90;;;;;;5102189;28;20458;-78
2023/11/24 03:23:13;;;;;;;7.93;1.33;;;7.20;99.90;;;;;;5101061;28;20549;-81
2023/11/24 03:25:40;;;;;;;5.47;1.67;;;7.10;99.90;;;;;;5103916;28;20461;-81
2023/11/24 03:28:07;;;;;;;5.53;1.83;;;7.10;99.90;;;;;;5103264;28;20479;-78
2023/11/24 03:30:34;;;;;;;4.23;1.30;;;7.10;99.90;;;;;;5102881;28;20518;-78
2023/11/24 03:33:02;;;;;;;6.30;1.30;;;7.10;99.90;;;;;;5103570;28;20477;-82
2023/11/24 03:35:29;;;;;;;9.43;1.83;;;7.20;99.90;;;;;;5102181;28;20465;-82
2023/11/24 03:37:56;;;;;;;9.37;2.10;;;7.20;99.90;;;;;;5099179;28;21016;-81
2023/11/24 03:40:23;;;;;;;4.37;1.50;;;7.30;99.90;;;;;;5097710;28;20537;-80
2023/11/24 03:42:51;;;;;;;4.63;2.00;;;7.40;99.90;;;;;;5098662;28;20454;-80
2023/11/24 03:45:18;;;;;;;6.87;1.93;;;7.50;99.90;;;;;;5098363;28;20458;-81
2023/11/24 03:47:45;;;;;;;8.10;2.33;;;7.60;99.90;;;;;;5098278;28;20534;-81
2023/11/24 03:50:13;;;;;;;5.97;2.73;;;7.60;99.90;;;;;;5097882;28;20510;-81
2023/11/24 03:52:40;;;;;;;7.27;2.60;;;7.70;99.90;;;;;;5098386;28;20459;-81
2023/11/24 03:55:09;;;;;;;9.90;2.43;;;7.70;99.90;;;;;;5099785;28;20550;-81
2023/11/24 03:57:35;;;;;;;9.60;2.17;;;7.70;99.90;;;;;;5097068;28;20474;-81
2023/11/24 04:00:03;;;;;;;9.73;1.70;;;7.70;99.90;;;;;;5098203;28;20453;-81
2023/11/24 04:02:30;;;;;;;7.70;2.47;;;7.70;99.90;;;;;;5099049;28;21021;-81
2023/11/24 04:04:57;;;;;;;6.63;2.40;;;7.80;99.90;;;;;;5098997;28;20459;-82
2023/11/24 04:07:26;;;;;;;12.27;2.03;;;7.90;99.90;;;;;;5097881;28;20478;-80
2023/11/24 04:09:53;;;;;;;9.37;2.33;;;7.90;99.90;;;;;;5097717;28;20475;-81
2023/11/24 04:12:19;;;;;;;7.57;2.37;;;8.00;99.90;;;;;;5098564;28;20462;-81
2023/11/24 04:14:47;;;;;;;6.87;1.60;;;8.10;99.90;;;;;;5099235;28;20463;-81
2023/11/24 04:17:14;;;;;;;7.90;2.10;;;8.00;99.90;;;;;;5098738;28;20540;-82
2023/11/24 04:19:41;;;;;;;6.47;1.80;;;8.00;99.90;;;;;;5098576;28;20451;-81
2023/11/24 04:22:08;;;;;;;5.93;1.57;;;8.10;99.90;;;;;;5097777;28;20631;-82
2023/11/24 04:24:36;;;;;;;9.03;2.53;;;8.00;99.90;;;;;;5098626;28;20549;-82
2023/11/24 04:27:04;;;;;;;10.03;2.10;;;8.10;99.90;;;;;;5089983;28;20540;-78
2023/11/24 04:29:30;;;;;;;6.20;1.77;;;8.20;99.90;;;;;;5096672;28;20458;-80
2023/11/24 04:31:57;;;;;;;7.73;1.97;;;8.30;99.90;;;;;;5096377;28;20550;-82
2023/11/24 04:34:24;;;;;;;6.73;1.90;;;8.30;99.90;;;;;;5096250;28;20455;-82
2023/11/24 04:36:51;;;;;;;8.07;2.17;;;8.20;99.90;;;;;;5095752;28;20481;-81
2023/11/24 04:39:18;;;;;;;7.43;3.40;;;8.00;99.90;;;;;;5097199;28;20455;-84
2023/11/24 04:41:46;;;;;;;7.53;2.40;;;7.90;99.90;;;;;;5097194;28;20828;-84
2023/11/24 04:44:14;;;;;;;7.47;2.57;;;7.90;99.90;;;;;;5098540;28;20523;-83
2023/11/24 04:46:40;;;;;;;5.17;2.93;;;7.80;99.90;;;;;;5095271;28;20479;-83
2023/11/24 04:49:07;;;;;;;7.10;1.90;;;7.70;99.90;;;;;;5090552;28;20465;-83
2023/11/24 04:51:34;;;;;;;7.57;1.37;;;7.50;99.90;;;;;;5094385;28;20490;-83
2023/11/24 04:54:02;;;;;;;12.03;1.70;;;7.50;99.90;;;;;;5096889;28;20447;-83
2023/11/24 04:56:29;;;;;;;7.73;1.77;;;7.40;99.90;;;;;;5088171;28;20506;-82
2023/11/24 04:58:57;;;;;;;6.80;1.83;;;7.40;99.90;;;;;;5096466;28;20465;-83
2023/11/24 05:01:24;;;;;;;5.10;1.60;;;7.30;99.90;;;;;;5095758;28;20458;-84
2023/11/24 05:03:52;;;;;;;5.67;2.17;;;7.20;99.90;;;;;;5088117;28;20448;-83
2023/11/24 05:06:20;;;;;;;6.57;1.77;;;7.20;99.90;;;;;;5095195;28;20549;-84
2023/11/24 05:08:47;;;;;;;6.03;2.07;;;7.20;99.90;;;;;;5093076;28;20523;-83
2023/11/24 05:11:14;;;;;;;8.93;2.03;;;7.10;99.90;;;;;;5096423;28;20487;-81
2023/11/24 05:13:41;;;;;;;5.67;1.80;;;7.10;99.90;;;;;;5100598;28;20962;-83
2023/11/24 05:16:10;;;;;;;8.33;2.17;;;7.10;99.90;;;;;;5101189;28;20480;-83
2023/11/24 05:18:36;;;;;;;8.07;2.23;;;7.00;99.90;;;;;;5100812;28;20461;-83
2023/11/24 05:21:03;;;;;;;7.03;2.00;;;7.00;99.90;;;;;;5100161;28;20448;-83
2023/11/24 05:23:30;;;;;;;9.63;1.80;;;7.00;99.90;;;;;;5095336;28;20549;-82
2023/11/24 05:25:57;;;;;;;8.10;2.60;;;6.90;99.90;;;;;;5099505;28;21053;-82
2023/11/24 05:28:24;;;;;;;7.33;2.50;;;6.80;99.90;;;;;;5099508;28;20481;-83
2023/11/24 05:30:51;;;;;;;5.80;1.83;;;6.60;99.90;;;;;;5099659;28;20904;-82
2023/11/24 05:33:19;;;;;;;10.53;2.27;;;6.60;99.90;;;;;;5101086;28;20502;-81
2023/11/24 05:35:46;;;;;;;5.73;2.00;;;6.50;99.90;;;;;;5100900;28;20536;-81
2023/11/24 05:38:13;;;;;;;8.90;2.03;;;6.50;99.90;;;;;;5100579;28;20463;-81
2023/11/24 05:40:39;;;;;;;10.20;1.77;;;6.50;99.90;;;;;;5100815;28;20509;-79
2023/11/24 05:43:06;;;;;;;6.47;1.90;;;6.60;99.90;;;;;;5101833;28;21044;-83
2023/11/24 05:45:35;;;;;;;4.80;1.17;;;6.70;99.90;;;;;;5102604;28;20462;-85
2023/11/24 05:48:02;;;;;;;6.23;2.00;;;6.60;99.90;;;;;;5103605;28;20473;-84
2023/11/24 05:50:30;;;;;;;3.30;1.40;;;6.60;99.90;;;;;;5100103;28;20485;-81
2023/11/24 05:52:59;;;;;;;8.27;1.60;;;6.60;99.90;;;;;;5098094;28;20462;-81
2023/11/24 05:55:26;;;;;;;7.03;1.20;;;6.60;99.90;;;;;;5096931;28;20507;-81
2023/11/24 05:57:52;;;;;;;5.43;1.57;;;6.60;99.90;;;;;;5099703;28;20474;-82
2023/11/24 06:00:19;;;;;;;4.93;1.50;;;6.60;99.90;;;;;;5099510;28;20486;-81
2023/11/24 06:02:47;;;;;;;8.90;1.73;;;6.60;99.90;;;;;;5099687;28;20482;-81
2023/11/24 06:05:15;;;;;;;7.63;2.40;;;6.60;99.90;;;;;;5100488;28;20522;-82
2023/11/24 06:07:46;;;;;;;8.10;2.10;;;6.60;99.90;;;;;;5100466;28;20930;-82
2023/11/24 06:10:13;;;;;;;6.07;2.20;;;6.60;99.90;;;;;;5089696;28;20527;-82
2023/11/24 06:12:42;;;;;;;6.83;2.00;;;6.80;99.90;;;;;;5086675;28;20470;-80
2023/11/24 06:15:09;;;;;;;7.43;2.37;;;6.80;99.90;;;;;;5089274;28;20522;-81
2023/11/24 06:17:36;;;;;;;6.23;1.60;;;6.80;99.90;;;;;;5101305;28;20470;-81
2023/11/24 06:20:05;;;;;;;6.07;1.60;;;6.90;99.90;;;;;;5094016;28;20564;-80
2023/11/24 06:22:31;;;;;;;10.80;2.20;;;6.90;99.90;;;;;;5094365;28;20607;-81
2023/11/24 06:25:00;;;;;;;2.70;1.37;;;6.90;99.90;;;;;;5090184;28;20476;-81
2023/11/24 06:27:26;;;;;;;10.97;2.03;;;7.00;99.90;;;;;;5088551;28;20546;-81
2023/11/24 06:29:53;;;;;;;4.50;1.93;;;7.00;99.90;;;;;;5093102;28;20469;-83
2023/11/24 06:32:21;;;;;;;7.73;2.00;;;7.00;99.90;;;;;;5086791;28;20511;-82
2023/11/24 06:34:48;;;;;;;5.63;1.90;;;6.90;99.90;;;;;;5087618;28;20455;-81
2023/11/24 06:37:14;;;;;;;6.90;2.73;;;6.90;99.90;;;;;;5092906;28;20484;-81
2023/11/24 06:39:42;;;;;;;7.50;2.77;;;7.00;99.90;;;;;;5093403;28;20461;-82
2023/11/24 06:42:10;;;;;;;11.50;2.50;;;7.10;99.90;;;;;;5095736;28;20511;-81
2023/11/24 06:44:37;;;;;;;6.10;2.60;;;7.10;99.90;;;;;;5095612;28;20457;-82
2023/11/24 06:47:04;;;;;;;7.20;2.50;;;7.10;99.90;;;;;;5095096;28;20551;-83
2023/11/24 06:49:32;;;;;;;10.13;2.27;;;7.20;99.90;;;;;;5094183;28;20487;-83
2023/11/24 06:52:01;;;;;;;6.07;1.80;;;7.20;99.90;;;;;;5094982;28;20493;-85
2023/11/24 06:54:28;;;;;;;9.73;2.30;;;7.20;99.90;;;;;;5094839;28;20822;-85
2023/11/24 06:56:55;;;;;;;6.30;2.50;;;7.20;99.90;;;;;;5094912;28;20980;-84
2023/11/24 06:59:25;;;;;;;8.17;2.00;;;7.20;99.90;;;;;;5094085;28;20470;-84
2023/11/24 07:01:53;;;;;;;7.40;2.30;;;7.20;99.90;;;;;;5092709;28;20530;-84
2023/11/24 07:04:20;;;;;;;4.80;1.73;;;7.20;99.90;;;;;;5095078;28;20454;-84
2023/11/24 07:06:47;;;;;;;4.60;1.70;;;7.20;99.90;;;;;;5095182;28;20530;-84
2023/11/24 07:09:16;;;;;;;6.97;1.63;;;7.20;99.90;;;;;;5095054;28;20457;-84
2023/11/24 07:11:43;;;;;;;7.83;1.70;;;7.20;99.90;;;;;;5093769;28;20546;-83
2023/11/24 07:14:11;;;;;;;7.43;1.70;;;7.20;99.90;;;;;;5092253;28;20991;-84
2023/11/24 07:16:42;;;;;;;6.03;1.70;;;7.20;99.90;;;;;;5093303;28;20546;-83
2023/11/24 07:19:10;;;;;;;5.93;1.87;;;7.20;99.90;;;;;;5094184;28;20518;-83
2023/11/24 07:21:38;;;;;;;5.17;1.70;;;7.20;99.90;;;;;;5094582;28;20442;-82
2023/11/24 07:24:06;;;;;;;7.60;1.87;;;7.20;99.90;;;;;;5091729;28;20546;-84
2023/11/24 07:26:33;;;;;;;4.27;1.73;;;7.10;99.90;;;;;;5091289;28;20541;-82
2023/11/24 07:28:59;;;;;;;4.80;2.20;;;7.10;99.90;;;;;;5089621;28;20523;-84
2023/11/24 07:31:28;;;;;;;9.47;2.37;;;7.00;99.90;;;;;;5088229;28;20601;-84
2023/11/24 07:33:56;;;;;;;6.97;1.70;;;6.90;99.90;;;;;;5085345;28;20970;-83
2023/11/24 07:36:26;;;;;;;6.27;1.40;;;6.90;99.90;;;;;;5086902;28;20562;-83
2023/11/24 07:38:53;;;;;;;7.90;1.50;;;6.90;99.90;;;;;;5094000;28;20511;-81
2023/11/24 07:41:22;;;;;;;6.00;2.00;;;6.90;99.90;;;;;;5086224;28;20969;-82
2023/11/24 07:43:51;;;;;;;6.80;1.63;;;6.90;99.90;;;;;;5085920;28;20914;-82
2023/11/24 07:46:20;;;;;;;6.33;1.83;;;6.90;99.90;;;;;;5085594;28;20474;-81
2023/11/24 07:48:47;;;;;;;7.37;1.80;;;6.90;99.90;;;;;;5084475;28;20554;-81
2023/11/24 07:51:15;;;;;;;8.43;2.00;;;6.90;99.90;;;;;;5085066;28;20489;-81
2023/11/24 07:53:44;;;;;;;6.40;1.97;;;6.90;99.90;;;;;;5087807;28;20447;-82
2023/11/24 07:56:11;;;;;;;8.57;1.70;;;6.90;99.90;;;;;;5082680;28;20480;-82
2023/11/24 07:58:39;;;;;;;7.33;2.10;;;6.80;99.90;;;;;;5084545;28;20459;-81
2023/11/24 08:01:06;;;;;;;6.70;1.83;;;6.80;99.90;;;;;;5088462;28;20522;-81
2023/11/24 08:03:32;;;;;;;6.87;1.70;;;6.70;99.90;;;;;;5088572;28;20523;-80
2023/11/24 08:06:06;;;;;;;6.20;1.60;;;6.80;99.90;;;;;;5097287;28;20478;-82
2023/11/24 08:08:35;;;;;;;3.50;1.40;;;6.90;99.90;;;;;;5096040;28;20988;-80
2023/11/24 08:11:02;;;;;;;3.57;1.30;;;6.90;99.90;;;;;;5089866;28;20485;-79
2023/11/24 08:13:29;;;;;;;7.10;1.70;;;6.90;99.90;;;;;;5088745;28;20454;-79
2023/11/24 08:15:55;;;;;;;6.87;2.43;;;6.90;99.90;;;;;;5091560;28;20549;-80
2023/11/24 08:18:22;;;;;;;6.93;1.43;;;7.00;99.90;;;;;;5087807;28;20459;-80
2023/11/24 08:20:52;;;;;;;7.50;1.80;;;7.10;99.90;;;;;;5091065;28;20454;-80
2023/11/24 08:23:19;;;;;;;5.17;1.70;;;7.20;99.90;;;;;;5085808;28;20507;-80
2023/11/24 08:25:48;;;;;;;3.67;1.63;;;7.20;99.90;;;;;;5081600;28;20530;-78
2023/11/24 08:28:15;;;;;;;4.20;1.53;;;7.20;99.90;;;;;;5094208;28;20461;-78
2023/11/24 08:30:42;;;;;;;6.83;1.90;;;7.20;99.90;;;;;;5089884;28;20461;-82
2023/11/24 08:33:12;;;;;;;9.30;1.53;;;7.20;99.90;;;;;;5085986;28;20538;-81
2023/11/24 08:35:39;;;;;;;4.37;1.47;;;7.20;99.90;;;;;;5087629;28;20458;-81
2023/11/24 08:38:06;;;;;;;3.50;1.83;;;7.30;99.90;;;;;;5085669;28;20475;-81
2023/11/24 08:40:33;;;;;;;5.73;2.20;;;7.40;99.90;;;;;;5078094;28;20862;-81
2023/11/24 08:43:01;;;;;;;5.60;2.47;;;7.40;99.90;;;;;;5087205;28;20528;-80
2023/11/24 08:45:28;;;;;;;4.73;1.70;;;7.40;99.90;;;;;;5086254;28;20447;-80
2023/11/24 08:47:55;;;;;;;9.40;1.97;;;7.30;99.90;;;;;;5087908;28;20470;-82
2023/11/24 08:50:22;;;;;;;10.00;1.90;;;7.30;99.90;;;;;;5090842;28;20488;-81
2023/11/24 08:52:52;;;;;;;5.67;1.80;;;7.00;99.90;;;;;;5092849;28;20524;-82
2023/11/24 08:55:19;;;;;;;5.23;1.50;;;7.00;99.90;;;;;;5090675;28;20947;-81
2023/11/24 08:57:46;;;;;;;8.80;2.03;;;7.00;99.90;;;;;;5091600;28;20486;-81
2023/11/24 09:00:15;;;;;;;2.93;1.33;;;7.00;99.90;;;;;;5094668;28;20528;-81
2023/11/24 09:02:43;;;;;;;6.50;1.23;;;7.00;99.90;;;;;;5083392;28;20439;-81
2023/11/24 09:05:10;;;;;;;11.13;1.97;;;7.10;99.90;;;;;;5089686;28;20461;-81
2023/11/24 09:07:37;;;;;;;3.93;1.33;;;7.20;99.90;;;;;;5086698;28;20558;-81
2023/11/24 09:10:08;;;;;;;2.80;1.20;;;7.30;99.90;;;;;;5092626;28;20521;-81
2023/11/24 09:12:35;;;;;;;5.10;1.23;;;7.30;99.90;;;;;;5091594;28;20501;-81
2023/11/24 09:15:05;;;;;;;39.67;19.93;;;7.20;99.90;;;;;;5099122;28;20459;-81
2023/11/24 09:17:34;;;;;;;30.30;13.03;;;7.40;99.90;;;;;;5096356;28;20468;-82
2023/11/24 09:20:00;;;;;;;2.20;1.53;;;7.50;99.90;;;;;;5101576;28;20499;-83
2023/11/24 09:22:27;;;;;;;4.27;1.30;;;7.60;99.90;;;;;;5097460;28;20454;-82
2023/11/24 09:24:54;;;;;;;2.13;1.00;;;7.70;99.90;;;;;;5098742;28;21014;-80
2023/11/24 09:27:21;;;;;;;2.40;1.30;;;7.70;99.90;;;;;;5089660;28;20567;-80
2023/11/24 09:29:48;;;;;;;6.07;1.10;;;7.60;99.90;;;;;;5093402;28;20828;-80
2023/11/24 09:32:15;;;;;;;3.80;1.20;;;7.50;99.90;;;;;;5089042;28;20537;-80
2023/11/24 09:34:44;;;;;;;4.20;1.40;;;7.60;99.90;;;;;;5090364;28;20917;-79
2023/11/24 09:37:11;;;;;;;6.70;1.50;;;7.60;99.90;;;;;;5092546;28;20986;-78
2023/11/24 09:39:38;;;;;;;6.53;1.87;;;7.40;99.90;;;;;;5093793;28;20469;-81
2023/11/24 09:42:07;;;;;;;4.80;1.80;;;7.20;99.90;;;;;;5099451;28;20446;-80
2023/11/24 09:44:34;;;;;;;3.00;1.03;;;7.20;99.90;;;;;;5088967;28;20962;-79
2023/11/24 09:47:02;;;;;;;2.67;1.20;;;7.20;99.90;;;;;;5092986;28;20470;-80
2023/11/24 09:49:30;;;;;;;4.77;1.20;;;7.20;99.90;;;;;;5093123;28;20553;-79
2023/11/24 09:51:59;;;;;;;6.00;1.57;;;7.30;99.90;;;;;;5090187;28;20520;-79
2023/11/24 09:54:28;;;;;;;2.30;1.00;;;7.30;99.90;;;;;;5097316;28;20544;-79
2023/11/24 09:56:56;;;;;;;4.03;1.10;;;7.40;99.90;;;;;;5093087;28;21142;-79
2023/11/24 09:59:23;;;;;;;2.83;1.17;;;7.60;99.90;;;;;;5092912;28;20464;-80
2023/11/24 10:01:53;;;;;;;4.60;1.57;;;7.60;99.90;;;;;;5097385;28;20930;-80
2023/11/24 10:04:19;;;;;;;4.63;1.43;;;7.80;99.90;;;;;;5094600;28;20495;-80
2023/11/24 10:06:49;;;;;;;4.97;1.20;;;7.80;99.90;;;;;;5091967;28;20471;-79
2023/11/24 10:09:25;;;;;;;3.70;0.80;;;8.00;99.90;;;;;;5095196;28;20503;-78
2023/11/24 10:11:52;;;;;;;4.23;1.40;;;8.00;99.90;;;;;;5094221;28;20487;-80
2023/11/24 10:14:22;;;;;;;5.80;1.30;;;8.00;99.90;;;;;;5093273;28;20455;-80
2023/11/24 10:16:51;;;;;;;3.70;1.00;;;7.70;99.90;;;;;;5092702;28;20464;-81
2023/11/24 10:19:21;;;;;;;5.57;1.27;;;7.70;99.90;;;;;;5089648;28;20455;-81
2023/11/24 10:21:49;;;;;;;5.00;1.07;;;7.50;99.90;;;;;;5095595;28;20440;-80
2023/11/24 10:24:16;;;;;;;3.60;1.37;;;7.50;99.90;;;;;;5090943;28;20448;-81
2023/11/24 10:26:45;;;;;;;3.43;1.00;;;7.40;99.90;;;;;;5087981;28;20998;-81
2023/11/24 10:29:15;;;;;;;4.57;1.50;;;7.50;99.90;;;;;;5092414;28;20457;-81
2023/11/24 10:31:42;;;;;;;2.13;1.10;;;7.40;99.90;;;;;;5091897;28;20519;-80
2023/11/24 10:34:10;;;;;;;5.20;1.23;;;7.50;99.90;;;;;;5092372;28;20467;-80
2023/11/24 10:36:37;;;;;;;5.30;1.27;;;7.40;99.90;;;;;;5081907;28;20473;-80
2023/11/24 10:39:09;;;;;;;2.23;0.93;;;7.30;99.90;;;;;;5084074;28;20466;-81
2023/11/24 10:41:46;;;;;;;1.80;0.80;;;7.00;99.90;;;;;;5092362;28;20946;-80
2023/11/24 10:44:14;;;;;;;3.07;1.03;;;7.00;99.90;;;;;;5092618;28;20457;-80
2023/11/24 10:46:45;;;;;;;2.50;1.03;;;7.00;99.90;;;;;;5087698;28;21001;-80
2023/11/24 10:49:21;;;;;;;2.60;0.90;;;7.00;99.90;;;;;;5092302;28;20830;-80
2023/11/24 10:51:58;;;;;;;6.10;1.60;;;7.00;99.90;;;;;;5085040;28;20489;-80
2023/11/24 10:54:32;;;;;;;3.33;1.77;;;7.00;99.90;;;;;;5091734;28;20818;-81
2023/11/24 10:57:02;;;;;;;2.37;1.20;;;7.00;99.90;;;;;;5093223;28;20981;-82
2023/11/24 10:59:33;;;;;;;3.10;0.90;;;6.90;99.90;;;;;;5094025;28;20451;-82
2023/11/24 11:02:05;;;;;;;5.37;1.17;;;6.70;99.90;;;;;;5088161;28;20466;-82
2023/11/24 11:04:32;;;;;;;4.10;1.13;;;6.60;99.90;;;;;;5090201;28;20454;-83
2023/11/24 11:07:07;;;;;;;3.40;0.93;;;6.50;99.90;;;;;;5092852;28;20552;-81
2023/11/24 11:09:47;;;;;;;2.77;1.10;;;6.30;99.90;;;;;;5088800;28;20464;-82
2023/11/24 11:12:34;;;;;;;3.20;1.43;;;6.40;99.90;;;;;;5090531;28;20481;-81
2023/11/24 11:15:01;;;;;;;3.73;1.00;;;6.50;99.90;;;;;;5090149;28;20453;-83
2023/11/24 11:17:28;;;;;;;2.23;0.90;;;6.60;99.90;;;;;;5086430;28;20495;-83
2023/11/24 11:19:58;;;;;;;4.87;0.90;;;7.10;99.90;;;;;;5087964;28;20511;-81
2023/11/24 11:22:29;;;;;;;3.63;0.87;;;8.30;99.90;;;;;;5085803;28;20456;-81
2023/11/24 11:25:22;;;;;;;2.73;0.70;;;9.40;44.10;;;;;;5086242;28;20903;-81
2023/11/24 11:27:50;;;;;;;3.10;0.97;;;11.00;1.00;;;;;;5080985;28;20474;-80
2023/11/24 11:30:21;;;;;;;1.70;0.70;;;12.70;99.90;;;;;;5082734;28;20477;-81
2023/11/24 11:33:02;;;;;;;2.43;0.97;;;13.50;99.90;;;;;;5086101;28;20649;-80
2023/11/24 11:35:29;;;;;;;1.77;0.90;;;13.00;1.00;;;;;;5091156;28;20453;-81
2023/11/24 11:37:59;;;;;;;3.10;0.70;;;12.50;1.00;;;;;;5093004;28;20496;-81
2023/11/24 11:40:27;;;;;;;3.27;0.90;;;12.10;99.90;;;;;;5081308;28;20469;-80
2023/11/24 11:42:58;;;;;;;2.70;0.93;;;12.30;99.90;;;;;;5087414;28;20443;-81
2023/11/24 11:45:29;;;;;;;2.40;1.10;;;13.40;1.00;;;;;;5089517;28;20458;-80
2023/11/24 11:47:58;;;;;;;3.93;1.27;;;14.80;99.90;;;;;;5085868;28;20469;-80
2023/11/24 11:50:25;;;;;;;1.70;0.80;;;15.30;33.50;;;;;;5090697;28;20461;-80
2023/11/24 11:52:57;;;;;;;3.73;1.00;;;15.10;1.00;;;;;;5087730;28;20518;-80
2023/11/24 11:55:25;;;;;;;2.93;0.80;;;14.10;1.00;;;;;;5088300;28;20461;-80
2023/11/24 11:57:54;;;;;;;2.87;1.20;;;12.80;1.00;;;;;;5087808;28;20479;-81
2023/11/24 12:00:26;;;;;;;3.40;0.80;;;12.30;99.90;;;;;;5082353;28;20454;-80
2023/11/24 12:02:53;;;;;;;3.40;0.97;;;11.70;1.00;;;;;;5093089;28;20443;-81
2023/11/24 12:05:21;;;;;;;7.77;1.10;;;11.20;99.90;;;;;;5088619;28;20945;-81
2023/11/24 12:07:49;;;;;;;6.83;1.20;;;10.50;1.00;;;;;;5088376;28;20480;-80
2023/11/24 12:10:16;;;;;;;5.00;1.23;;;9.90;99.90;;;;;;5089781;28;20462;-81
2023/11/24 12:12:43;;;;;;;3.57;1.50;;;9.70;1.00;;;;;;5087331;28;20582;-83
2023/11/24 12:15:17;;;;;;;5.83;1.77;;;9.80;1.00;;;;;;5087184;28;20477;-80
2023/11/24 12:17:44;;;;;;;7.03;1.30;;;9.80;1.00;;;;;;5088531;28;20462;-79
2023/11/24 12:20:12;;;;;;;3.03;1.40;;;9.60;1.00;;;;;;5086224;28;20549;-78
2023/11/24 12:22:39;;;;;;;10.33;1.97;;;9.40;1.00;;;;;;5084987;28;20458;-79
2023/11/24 12:25:10;;;;;;;5.93;2.07;;;9.30;1.00;;;;;;5083587;28;20550;-79
2023/11/24 12:27:37;;;;;;;6.47;1.80;;;9.50;1.00;;;;;;5084555;28;20479;-80
2023/11/24 12:30:07;;;;;;;7.40;1.20;;;9.40;1.00;;;;;;5087371;28;20946;-81
2023/11/24 12:32:36;;;;;;;3.70;0.90;;;9.30;1.00;;;;;;5092407;28;20486;-81
2023/11/24 12:35:03;;;;;;;3.97;0.90;;;9.40;1.00;;;;;;5090216;28;20866;-79
2023/11/24 12:37:32;;;;;;;3.73;1.20;;;9.80;99.90;;;;;;5094885;28;20476;-79
2023/11/24 12:40:00;;;;;;;3.20;1.03;;;10.10;99.90;;;;;;5093814;28;20463;-80
2023/11/24 12:42:29;;;;;;;2.70;1.30;;;9.90;99.90;;;;;;5089383;28;20536;-79
2023/11/24 12:45:02;;;;;;;4.77;1.10;;;10.30;99.90;;;;;;5090514;28;20485;-80
2023/11/24 12:47:30;;;;;;;3.97;1.50;;;10.30;99.90;;;;;;5092036;28;20480;-80
2023/11/24 12:50:02;;;;;;;7.70;1.40;;;9.80;99.90;;;;;;5092936;28;20465;-81
2023/11/24 12:52:30;;;;;;;4.07;1.30;;;9.20;1.00;;;;;;5094922;28;20875;-79
2023/11/24 12:54:57;;;;;;;3.03;1.27;;;8.90;1.00;;;;;;5097069;28;20472;-79
2023/11/24 12:57:24;;;;;;;2.57;1.50;;;8.80;1.00;;;;;;5096007;28;20473;-80
2023/11/24 12:59:52;;;;;;;2.37;1.43;;;8.50;1.00;;;;;;5088496;28;20448;-82